createdAt,value
2018-01-15T00:00:58.270Z,0
2018-01-15T00:01:58.021Z,0
2018-01-15T00:02:58.789Z,0
2018-01-15T00:03:58.299Z,0
2018-01-15T00:04:58.317Z,0
2018-01-15T00:05:57.819Z,0
2018-01-15T00:06:58.597Z,0
2018-01-15T00:07:58.335Z,0
2018-01-15T00:08:58.364Z,0
2018-01-15T00:09:58.641Z,0
2018-01-15T00:10:58.399Z,0
2018-01-15T00:11:58.409Z,0
2018-01-15T00:12:58.971Z,0
2018-01-15T00:13:58.684Z,0
2018-01-15T00:14:58.444Z,0
2018-01-15T00:15:58.706Z,0
2018-01-15T00:16:58.749Z,0
2018-01-15T00:17:58.477Z,0
2018-01-15T00:18:58.747Z,0
2018-01-15T00:19:59.010Z,0
2018-01-15T00:20:58.775Z,0
2018-01-15T00:21:58.983Z,0
2018-01-15T00:22:58.794Z,0
2018-01-15T00:23:58.554Z,0
2018-01-15T00:24:59.067Z,0
2018-01-15T00:25:58.578Z,0
2018-01-15T00:26:58.341Z,0
2018-01-15T00:27:58.650Z,0
2018-01-15T00:28:58.368Z,0
2018-01-15T00:29:58.927Z,0
2018-01-15T00:30:58.937Z,0
2018-01-15T00:31:59.157Z,0
2018-01-15T00:32:58.921Z,0
2018-01-15T00:33:58.929Z,0
2018-01-15T00:34:58.449Z,0
2018-01-15T00:35:58.711Z,0
2018-01-15T00:36:58.462Z,0
2018-01-15T00:37:58.224Z,0
2018-01-15T00:38:58.993Z,0
2018-01-15T00:39:58.755Z,0
2018-01-15T00:40:58.510Z,0
2018-01-15T00:41:58.781Z,0
2018-01-15T00:42:58.592Z,0
2018-01-15T00:43:59.308Z,0
2018-01-15T00:44:58.812Z,0
2018-01-15T00:45:59.077Z,0
2018-01-15T00:46:59.095Z,0
2018-01-15T00:47:58.621Z,0
2018-01-15T00:48:58.865Z,0
2018-01-15T00:49:59.134Z,0
2018-01-15T00:50:58.900Z,0
2018-01-15T00:51:58.899Z,0
2018-01-15T00:52:58.507Z,0
2018-01-15T00:53:59.175Z,0
2018-01-15T00:54:58.945Z,0
2018-01-15T00:55:59.208Z,0
2018-01-15T00:56:59.030Z,0
2018-01-15T00:57:59.399Z,0
2018-01-15T00:58:59.019Z,0
2018-01-15T00:59:59.259Z,0
2018-01-15T01:00:59.272Z,0
2018-01-15T01:01:59.031Z,0
2018-01-15T01:02:59.298Z,0
2018-01-15T01:03:59.057Z,0
2018-01-15T01:04:58.813Z,0
2018-01-15T01:05:59.074Z,0
2018-01-15T01:06:59.348Z,0
2018-01-15T01:07:59.105Z,0
2018-01-15T01:08:58.862Z,0
2018-01-15T01:09:59.137Z,0
2018-01-15T01:10:59.393Z,0
2018-01-15T01:11:58.900Z,0
2018-01-15T01:12:59.477Z,0
2018-01-15T01:13:58.940Z,0
2018-01-15T01:14:59.740Z,0
2018-01-15T01:15:59.456Z,0
2018-01-15T01:16:59.215Z,0
2018-01-15T01:17:58.728Z,0
2018-01-15T01:18:59.246Z,0
2018-01-15T01:19:59.755Z,0
2018-01-15T01:20:59.274Z,0
2018-01-15T01:21:59.279Z,0
2018-01-15T01:22:59.570Z,0
2018-01-15T01:23:59.308Z,0
2018-01-15T01:24:59.068Z,0
2018-01-15T01:25:59.587Z,0
2018-01-15T01:26:59.342Z,0
2018-01-15T01:27:58.922Z,0
2018-01-15T01:28:58.866Z,0
2018-01-15T01:29:59.888Z,0
2018-01-15T01:30:59.397Z,0
2018-01-15T01:31:59.666Z,0
2018-01-15T01:32:59.423Z,0
2018-01-15T01:33:59.692Z,0
2018-01-15T01:34:59.440Z,0
2018-01-15T01:35:59.717Z,0
2018-01-15T01:36:59.969Z,0
2018-01-15T01:38:00.050Z,0
2018-01-15T01:38:59.751Z,0
2018-01-15T01:39:59.254Z,0
2018-01-15T01:41:00.022Z,0
2018-01-15T01:41:59.279Z,0
2018-01-15T01:42:59.104Z,0
2018-01-15T01:43:59.806Z,0
2018-01-15T01:44:59.816Z,0
2018-01-15T01:45:59.326Z,0
2018-01-15T01:46:59.594Z,0
2018-01-15T01:47:59.854Z,0
2018-01-15T01:48:59.882Z,0
2018-01-15T01:49:59.884Z,0
2018-01-15T01:50:59.645Z,0
2018-01-15T01:51:59.152Z,0
2018-01-15T01:52:59.694Z,0
2018-01-15T01:54:00.193Z,0
2018-01-15T01:54:59.691Z,0
2018-01-15T01:55:59.950Z,0
2018-01-15T01:56:59.963Z,0
2018-01-15T01:58:00.238Z,0
2018-01-15T01:58:59.991Z,0
2018-01-15T02:00:00.064Z,0
2018-01-15T02:00:59.763Z,0
2018-01-15T02:02:00.054Z,0
2018-01-15T02:02:59.790Z,0
2018-01-15T02:03:59.804Z,0
2018-01-15T02:04:59.564Z,0
2018-01-15T02:06:00.075Z,0
2018-01-15T02:06:59.839Z,0
2018-01-15T02:07:59.847Z,0
2018-01-15T02:08:59.359Z,0
2018-01-15T02:10:00.132Z,0
2018-01-15T02:11:00.144Z,0
2018-01-15T02:12:00.162Z,0
2018-01-15T02:12:59.928Z,0
2018-01-15T02:13:59.922Z,0
2018-01-15T02:14:59.992Z,0
2018-01-15T02:15:59.948Z,0
2018-01-15T02:17:00.461Z,0
2018-01-15T02:18:00.222Z,0
2018-01-15T02:18:59.735Z,0
2018-01-15T02:19:59.493Z,0
2018-01-15T02:21:00.128Z,0
2018-01-15T02:22:00.271Z,0
2018-01-15T02:23:00.285Z,0
2018-01-15T02:24:00.058Z,0
2018-01-15T02:25:00.320Z,0
2018-01-15T02:26:00.082Z,0
2018-01-15T02:27:00.357Z,0
2018-01-15T02:28:00.360Z,0
2018-01-15T02:29:00.111Z,0
2018-01-15T02:30:00.374Z,0
2018-01-15T02:31:00.191Z,0
2018-01-15T02:32:00.144Z,0
2018-01-15T02:33:00.430Z,0
2018-01-15T02:34:00.689Z,0
2018-01-15T02:35:00.440Z,0
2018-01-15T02:36:00.198Z,0
2018-01-15T02:37:00.736Z,0
2018-01-15T02:38:00.221Z,0
2018-01-15T02:38:59.994Z,0
2018-01-15T02:40:00.046Z,0
2018-01-15T02:41:00.514Z,0
2018-01-15T02:42:00.270Z,0
2018-01-15T02:43:00.583Z,0
2018-01-15T02:44:00.041Z,0
2018-01-15T02:45:00.560Z,0
2018-01-15T02:46:00.120Z,0
2018-01-15T02:47:00.581Z,0
2018-01-15T02:48:00.094Z,0
2018-01-15T02:49:00.602Z,0
2018-01-15T02:50:00.367Z,0
2018-01-15T02:51:00.891Z,0
2018-01-15T02:52:00.645Z,0
2018-01-15T02:53:00.404Z,0
2018-01-15T02:54:00.669Z,0
2018-01-15T02:55:00.690Z,0
2018-01-15T02:56:00.694Z,0
2018-01-15T02:57:00.199Z,0
2018-01-15T02:58:00.715Z,0
2018-01-15T02:59:00.990Z,0
2018-01-15T03:00:00.240Z,0
2018-01-15T03:01:00.551Z,0
2018-01-15T03:02:00.515Z,0
2018-01-15T03:03:00.800Z,0
2018-01-15T03:04:00.797Z,0
2018-01-15T03:05:01.060Z,0
2018-01-15T03:06:00.315Z,0
2018-01-15T03:07:01.078Z,0
2018-01-15T03:08:00.344Z,0
2018-01-15T03:09:00.609Z,0
2018-01-15T03:10:00.624Z,0
2018-01-15T03:11:00.627Z,0
2018-01-15T03:12:00.643Z,0
2018-01-15T03:13:00.404Z,0
2018-01-15T03:14:00.414Z,0
2018-01-15T03:15:00.931Z,0
2018-01-15T03:16:00.750Z,0
2018-01-15T03:17:00.451Z,0
2018-01-15T03:18:00.727Z,0
2018-01-15T03:19:00.980Z,0
2018-01-15T03:20:00.996Z,0
2018-01-15T03:21:00.608Z,0
2018-01-15T03:22:01.018Z,0
2018-01-15T03:23:00.782Z,0
2018-01-15T03:24:00.798Z,0
2018-01-15T03:25:01.060Z,0
2018-01-15T03:26:01.074Z,0
2018-01-15T03:27:00.837Z,0
2018-01-15T03:28:00.594Z,0
2018-01-15T03:29:00.612Z,0
2018-01-15T03:30:00.868Z,0
2018-01-15T03:31:00.939Z,0
2018-01-15T03:32:01.170Z,0
2018-01-15T03:33:00.669Z,0
2018-01-15T03:34:00.927Z,0
2018-01-15T03:35:00.936Z,0
2018-01-15T03:36:01.450Z,0
2018-01-15T03:37:00.968Z,0
2018-01-15T03:38:01.228Z,0
2018-01-15T03:39:01.243Z,0
2018-01-15T03:40:01.000Z,0
2018-01-15T03:41:01.006Z,0
2018-01-15T03:42:01.029Z,0
2018-01-15T03:43:00.787Z,0
2018-01-15T03:44:01.317Z,0
2018-01-15T03:45:01.576Z,0
2018-01-15T03:46:01.634Z,0
2018-01-15T03:47:00.846Z,0
2018-01-15T03:48:00.870Z,0
2018-01-15T03:49:01.370Z,0
2018-01-15T03:50:01.645Z,0
2018-01-15T03:51:01.403Z,0
2018-01-15T03:52:00.904Z,0
2018-01-15T03:53:01.420Z,0
2018-01-15T03:54:01.175Z,0
2018-01-15T03:55:01.442Z,0
2018-01-15T03:56:01.907Z,0
2018-01-15T03:57:00.966Z,0
2018-01-15T03:58:01.488Z,0
2018-01-15T03:59:01.491Z,0
2018-01-15T04:00:01.253Z,0
2018-01-15T04:01:01.566Z,0
2018-01-15T04:02:01.792Z,0
2018-01-15T04:03:01.295Z,0
2018-01-15T04:04:01.055Z,0
2018-01-15T04:05:01.566Z,0
2018-01-15T04:06:00.827Z,0
2018-01-15T04:07:01.343Z,0
2018-01-15T04:08:01.625Z,0
2018-01-15T04:09:01.628Z,0
2018-01-15T04:10:01.650Z,0
2018-01-15T04:11:01.657Z,0
2018-01-15T04:12:01.665Z,0
2018-01-15T04:13:01.167Z,0
2018-01-15T04:14:01.444Z,0
2018-01-15T04:15:01.971Z,0
2018-01-15T04:16:01.511Z,0
2018-01-15T04:17:01.733Z,0
2018-01-15T04:18:01.486Z,0
2018-01-15T04:19:01.004Z,0
2018-01-15T04:20:01.764Z,0
2018-01-15T04:21:01.777Z,0
2018-01-15T04:22:01.540Z,0
2018-01-15T04:23:01.559Z,0
2018-01-15T04:24:01.822Z,0
2018-01-15T04:25:02.083Z,0
2018-01-15T04:26:01.589Z,0
2018-01-15T04:27:01.347Z,0
2018-01-15T04:28:01.871Z,0
2018-01-15T04:29:01.875Z,0
2018-01-15T04:30:01.398Z,0
2018-01-15T04:31:01.715Z,0
2018-01-15T04:32:01.677Z,0
2018-01-15T04:33:01.930Z,0
2018-01-15T04:34:01.445Z,0
2018-01-15T04:35:01.963Z,0
2018-01-15T04:36:01.463Z,0
2018-01-15T04:37:01.983Z,0
2018-01-15T04:38:01.489Z,0
2018-01-15T04:39:02.005Z,0
2018-01-15T04:40:02.017Z,0
2018-01-15T04:41:01.529Z,0
2018-01-15T04:42:02.039Z,0
2018-01-15T04:43:01.550Z,0
2018-01-15T04:44:01.817Z,0
2018-01-15T04:45:01.825Z,0
2018-01-15T04:46:01.895Z,0
2018-01-15T04:47:01.844Z,0
2018-01-15T04:48:01.856Z,0
2018-01-15T04:49:02.118Z,0
2018-01-15T04:50:01.650Z,0
2018-01-15T04:51:02.409Z,0
2018-01-15T04:52:01.917Z,0
2018-01-15T04:53:02.185Z,0
2018-01-15T04:54:02.196Z,0
2018-01-15T04:55:02.221Z,0
2018-01-15T04:56:02.072Z,0
2018-01-15T04:57:02.237Z,0
2018-01-15T04:58:01.992Z,0
2018-01-15T04:59:02.512Z,0
2018-01-15T05:00:02.277Z,0
2018-01-15T05:01:01.827Z,0
2018-01-15T05:02:02.303Z,0
2018-01-15T05:03:02.058Z,0
2018-01-15T05:04:01.817Z,0
2018-01-15T05:05:01.825Z,0
2018-01-15T05:06:02.095Z,0
2018-01-15T05:07:02.108Z,0
2018-01-15T05:08:02.395Z,0
2018-01-15T05:09:01.877Z,0
2018-01-15T05:10:01.891Z,0
2018-01-15T05:11:02.154Z,0
2018-01-15T05:12:02.167Z,0
2018-01-15T05:13:02.177Z,0
2018-01-15T05:14:02.449Z,0
2018-01-15T05:15:02.455Z,0
2018-01-15T05:16:02.011Z,0
2018-01-15T05:17:02.484Z,0
2018-01-15T05:18:02.496Z,0
2018-01-15T05:19:02.512Z,0
2018-01-15T05:20:02.017Z,0
2018-01-15T05:21:02.280Z,0
2018-01-15T05:22:02.301Z,0
2018-01-15T05:23:02.807Z,0
2018-01-15T05:24:02.319Z,0
2018-01-15T05:25:02.328Z,0
2018-01-15T05:26:02.359Z,0
2018-01-15T05:27:02.606Z,0
2018-01-15T05:28:02.916Z,0
2018-01-15T05:29:02.630Z,0
2018-01-15T05:30:02.646Z,0
2018-01-15T05:31:01.900Z,0
2018-01-15T05:32:02.417Z,0
2018-01-15T05:33:02.429Z,0
2018-01-15T05:34:02.750Z,0
2018-01-15T05:35:02.956Z,0
2018-01-15T05:36:02.789Z,0
2018-01-15T05:37:02.480Z,0
2018-01-15T05:38:02.514Z,0
2018-01-15T05:39:02.503Z,0
2018-01-15T05:40:02.765Z,0
2018-01-15T05:41:02.791Z,0
2018-01-15T05:42:02.794Z,0
2018-01-15T05:43:02.573Z,0
2018-01-15T05:44:02.595Z,0
2018-01-15T05:45:03.087Z,0
2018-01-15T05:46:02.851Z,0
2018-01-15T05:47:02.610Z,0
2018-01-15T05:48:02.870Z,0
2018-01-15T05:49:02.929Z,0
2018-01-15T05:50:02.651Z,0
2018-01-15T05:51:02.669Z,0
2018-01-15T05:52:02.677Z,0
2018-01-15T05:53:02.705Z,0
2018-01-15T05:54:03.220Z,0
2018-01-15T05:55:02.721Z,0
2018-01-15T05:56:02.726Z,0
2018-01-15T05:57:02.511Z,0
2018-01-15T05:58:02.751Z,0
2018-01-15T05:59:02.359Z,0
2018-01-15T06:00:02.773Z,0
2018-01-15T06:01:03.043Z,0
2018-01-15T06:02:02.823Z,0
2018-01-15T06:03:03.076Z,0
2018-01-15T06:04:03.132Z,0
2018-01-15T06:05:03.401Z,0
2018-01-15T06:06:03.103Z,0
2018-01-15T06:07:03.132Z,0
2018-01-15T06:08:03.187Z,0
2018-01-15T06:09:03.153Z,0
2018-01-15T06:10:03.159Z,0
2018-01-15T06:11:02.923Z,0
2018-01-15T06:12:03.191Z,0
2018-01-15T06:13:02.949Z,0
2018-01-15T06:14:03.303Z,0
2018-01-15T06:15:02.967Z,0
2018-01-15T06:16:02.728Z,0
2018-01-15T06:17:03.091Z,0
2018-01-15T06:18:03.014Z,0
2018-01-15T06:19:03.074Z,0
2018-01-15T06:20:03.293Z,0
2018-01-15T06:21:03.563Z,0
2018-01-15T06:22:03.322Z,0
2018-01-15T06:23:02.821Z,0
2018-01-15T06:24:02.836Z,0
2018-01-15T06:25:03.417Z,0
2018-01-15T06:26:03.111Z,0
2018-01-15T06:27:03.383Z,0
2018-01-15T06:28:03.139Z,0
2018-01-15T06:29:03.415Z,0
2018-01-15T06:30:03.164Z,0
2018-01-15T06:31:02.922Z,0
2018-01-15T06:32:03.445Z,0
2018-01-15T06:33:03.458Z,0
2018-01-15T06:34:03.272Z,0
2018-01-15T06:35:03.741Z,0
2018-01-15T06:36:03.507Z,0
2018-01-15T06:37:03.512Z,0
2018-01-15T06:38:03.297Z,0
2018-01-15T06:39:03.027Z,0
2018-01-15T06:40:03.294Z,0
2018-01-15T06:41:03.310Z,0
2018-01-15T06:42:03.323Z,0
2018-01-15T06:43:03.836Z,0
2018-01-15T06:44:03.596Z,0
2018-01-15T06:45:03.116Z,0
2018-01-15T06:46:03.629Z,0
2018-01-15T06:47:03.134Z,0
2018-01-15T06:48:03.662Z,0
2018-01-15T06:49:03.222Z,0
2018-01-15T06:50:03.679Z,0
2018-01-15T06:51:03.690Z,0
2018-01-15T06:52:03.453Z,0
2018-01-15T06:53:03.523Z,0
2018-01-15T06:54:04.078Z,0
2018-01-15T06:55:03.245Z,0
2018-01-15T06:56:03.517Z,0
2018-01-15T06:57:03.266Z,0
2018-01-15T06:58:04.032Z,0
2018-01-15T06:59:03.550Z,0
2018-01-15T07:00:04.071Z,0
2018-01-15T07:01:03.580Z,0
2018-01-15T07:02:04.109Z,0
2018-01-15T07:03:03.916Z,0
2018-01-15T07:04:03.692Z,0
2018-01-15T07:05:03.881Z,5
2018-01-15T07:06:03.899Z,5
2018-01-15T07:07:03.905Z,5
2018-01-15T07:08:03.424Z,5
2018-01-15T07:09:04.178Z,5
2018-01-15T07:10:04.191Z,5
2018-01-15T07:11:03.974Z,5
2018-01-15T07:12:03.486Z,5
2018-01-15T07:13:03.984Z,5
2018-01-15T07:14:04.254Z,5
2018-01-15T07:15:04.267Z,10
2018-01-15T07:16:04.034Z,10
2018-01-15T07:17:04.048Z,10
2018-01-15T07:18:04.068Z,10
2018-01-15T07:19:04.388Z,10
2018-01-15T07:20:03.577Z,10
2018-01-15T07:21:03.834Z,10
2018-01-15T07:22:03.850Z,10
2018-01-15T07:23:03.861Z,10
2018-01-15T07:24:03.878Z,10
2018-01-15T07:25:03.637Z,15
2018-01-15T07:26:04.157Z,15
2018-01-15T07:27:03.664Z,15
2018-01-15T07:28:03.938Z,15
2018-01-15T07:29:03.943Z,15
2018-01-15T07:30:03.953Z,15
2018-01-15T07:31:03.964Z,15
2018-01-15T07:32:03.986Z,15
2018-01-15T07:33:04.248Z,15
2018-01-15T07:34:04.306Z,15
2018-01-15T07:35:04.318Z,15
2018-01-15T07:36:04.290Z,15
2018-01-15T07:37:04.047Z,15
2018-01-15T07:38:03.812Z,15
2018-01-15T07:39:04.582Z,15
2018-01-15T07:40:04.084Z,15
2018-01-15T07:41:04.611Z,20
2018-01-15T07:42:04.116Z,20
2018-01-15T07:43:04.130Z,20
2018-01-15T07:44:04.402Z,20
2018-01-15T07:45:04.402Z,20
2018-01-15T07:46:04.162Z,25
2018-01-15T07:47:04.426Z,25
2018-01-15T07:48:04.439Z,25
2018-01-15T07:49:04.229Z,25
2018-01-15T07:50:04.176Z,25
2018-01-15T07:51:03.725Z,25
2018-01-15T07:52:04.617Z,25
2018-01-15T07:53:04.255Z,30
2018-01-15T07:54:04.772Z,30
2018-01-15T07:55:04.534Z,30
2018-01-15T07:56:04.546Z,35
2018-01-15T07:57:04.058Z,35
2018-01-15T07:58:04.572Z,35
2018-01-15T07:59:04.332Z,35
2018-01-15T08:00:04.093Z,40
2018-01-15T08:01:04.866Z,40
2018-01-15T08:02:04.624Z,40
2018-01-15T08:03:04.386Z,40
2018-01-15T08:04:04.666Z,40
2018-01-15T08:05:04.971Z,35
2018-01-15T08:06:04.430Z,35
2018-01-15T08:07:04.444Z,35
2018-01-15T08:08:04.203Z,35
2018-01-15T08:09:04.481Z,35
2018-01-15T08:10:04.778Z,35
2018-01-15T08:11:04.243Z,35
2018-01-15T08:12:04.509Z,35
2018-01-15T08:13:04.521Z,35
2018-01-15T08:14:04.798Z,35
2018-01-15T08:15:04.799Z,35
2018-01-15T08:16:04.861Z,40
2018-01-15T08:17:04.821Z,40
2018-01-15T08:18:05.084Z,40
2018-01-15T08:19:04.846Z,40
2018-01-15T08:20:04.917Z,40
2018-01-15T08:21:04.886Z,45
2018-01-15T08:22:04.746Z,45
2018-01-15T08:23:04.660Z,45
2018-01-15T08:24:04.669Z,45
2018-01-15T08:25:04.935Z,45
2018-01-15T08:26:04.951Z,50
2018-01-15T08:27:04.958Z,50
2018-01-15T08:28:04.796Z,50
2018-01-15T08:29:05.025Z,50
2018-01-15T08:30:05.068Z,50
2018-01-15T08:31:04.774Z,50
2018-01-15T08:32:04.272Z,55
2018-01-15T08:33:04.545Z,55
2018-01-15T08:34:04.547Z,55
2018-01-15T08:35:05.114Z,55
2018-01-15T08:36:05.090Z,55
2018-01-15T08:37:05.096Z,55
2018-01-15T08:38:04.602Z,55
2018-01-15T08:39:05.119Z,60
2018-01-15T08:40:04.628Z,60
2018-01-15T08:41:04.644Z,60
2018-01-15T08:42:05.166Z,60
2018-01-15T08:43:04.919Z,60
2018-01-15T08:44:04.690Z,60
2018-01-15T08:45:04.798Z,65
2018-01-15T08:46:05.054Z,65
2018-01-15T08:47:05.484Z,65
2018-01-15T08:48:04.733Z,70
2018-01-15T08:49:04.997Z,70
2018-01-15T08:50:05.064Z,70
2018-01-15T08:51:05.024Z,70
2018-01-15T08:52:05.280Z,75
2018-01-15T08:53:05.548Z,75
2018-01-15T08:54:05.069Z,80
2018-01-15T08:55:04.878Z,80
2018-01-15T08:56:05.612Z,85
2018-01-15T08:57:05.105Z,85
2018-01-15T08:58:05.116Z,90
2018-01-15T08:59:05.142Z,95
2018-01-15T09:00:04.890Z,95
2018-01-15T09:01:05.248Z,100
2018-01-15T09:02:05.672Z,105
2018-01-15T09:03:05.181Z,105
2018-01-15T09:04:05.451Z,105
2018-01-15T09:05:05.466Z,110
2018-01-15T09:06:04.975Z,110
2018-01-15T09:07:04.790Z,115
2018-01-15T09:08:05.503Z,115
2018-01-15T09:09:05.773Z,120
2018-01-15T09:10:05.535Z,120
2018-01-15T09:11:05.045Z,120
2018-01-15T09:12:05.566Z,125
2018-01-15T09:13:05.575Z,125
2018-01-15T09:14:05.840Z,125
2018-01-15T09:15:05.144Z,130
2018-01-15T09:16:05.113Z,135
2018-01-15T09:17:05.374Z,135
2018-01-15T09:18:05.401Z,140
2018-01-15T09:19:05.662Z,150
2018-01-15T09:20:05.670Z,155
2018-01-15T09:21:05.692Z,165
2018-01-15T09:22:05.499Z,175
2018-01-15T09:23:05.460Z,180
2018-01-15T09:24:05.495Z,190
2018-01-15T09:25:05.753Z,190
2018-01-15T09:26:05.250Z,200
2018-01-15T09:27:05.774Z,210
2018-01-15T09:28:05.530Z,220
2018-01-15T09:29:05.814Z,235
2018-01-15T09:30:05.808Z,240
2018-01-15T09:31:05.576Z,255
2018-01-15T09:32:05.847Z,255
2018-01-15T09:33:05.601Z,260
2018-01-15T09:34:05.614Z,285
2018-01-15T09:35:05.887Z,270
2018-01-15T09:36:05.906Z,275
2018-01-15T09:37:05.708Z,270
2018-01-15T09:38:05.672Z,275
2018-01-15T09:39:05.689Z,280
2018-01-15T09:40:05.507Z,270
2018-01-15T09:41:06.222Z,255
2018-01-15T09:42:05.990Z,250
2018-01-15T09:43:05.745Z,235
2018-01-15T09:44:05.260Z,230
2018-01-15T09:45:06.050Z,270
2018-01-15T09:46:05.792Z,215
2018-01-15T09:47:05.812Z,220
2018-01-15T09:48:06.081Z,265
2018-01-15T09:49:05.861Z,260
2018-01-15T09:50:05.605Z,255
2018-01-15T09:51:06.120Z,255
2018-01-15T09:52:05.940Z,255
2018-01-15T09:53:06.411Z,260
2018-01-15T09:54:06.165Z,260
2018-01-15T09:55:05.425Z,260
2018-01-15T09:56:06.205Z,260
2018-01-15T09:57:05.707Z,260
2018-01-15T09:58:05.972Z,260
2018-01-15T09:59:05.737Z,265
2018-01-15T10:00:06.509Z,265
2018-01-15T10:01:06.021Z,265
2018-01-15T10:02:06.036Z,270
2018-01-15T10:03:06.043Z,270
2018-01-15T10:04:05.811Z,270
2018-01-15T10:05:06.079Z,280
2018-01-15T10:06:05.846Z,605
2018-01-15T10:07:06.407Z,1050
2018-01-15T10:08:06.641Z,1130
2018-01-15T10:09:06.402Z,1110
2018-01-15T10:10:05.899Z,1135
2018-01-15T10:11:06.423Z,1190
2018-01-15T10:12:05.934Z,1220
2018-01-15T10:13:06.706Z,1240
2018-01-15T10:14:06.471Z,1220
2018-01-15T10:15:06.493Z,1235
2018-01-15T10:16:06.542Z,1235
2018-01-15T10:17:06.279Z,1260
2018-01-15T10:18:06.542Z,1280
2018-01-15T10:19:06.304Z,1290
2018-01-15T10:20:06.584Z,1295
2018-01-15T10:21:06.090Z,895
2018-01-15T10:22:06.417Z,810
2018-01-15T10:23:06.878Z,1165
2018-01-15T10:24:06.905Z,1300
2018-01-15T10:25:06.414Z,1215
2018-01-15T10:26:06.688Z,905
2018-01-15T10:27:06.453Z,1155
2018-01-15T10:28:06.470Z,1140
2018-01-15T10:29:07.011Z,1100
2018-01-15T10:30:06.525Z,1310
2018-01-15T10:31:06.293Z,1240
2018-01-15T10:32:06.564Z,1345
2018-01-15T10:33:06.598Z,1410
2018-01-15T10:34:06.880Z,1445
2018-01-15T10:35:06.891Z,1110
2018-01-15T10:36:06.655Z,1085
2018-01-15T10:37:07.282Z,1125
2018-01-15T10:38:06.703Z,1390
2018-01-15T10:39:06.477Z,1490
2018-01-15T10:40:07.251Z,960
2018-01-15T10:41:06.785Z,1230
2018-01-15T10:42:07.051Z,970
2018-01-15T10:43:06.825Z,1450
2018-01-15T10:44:07.102Z,1475
2018-01-15T10:45:07.130Z,1480
2018-01-15T10:46:06.894Z,1555
2018-01-15T10:47:07.171Z,1540
2018-01-15T10:48:06.692Z,1520
2018-01-15T10:49:07.218Z,1575
2018-01-15T10:50:06.996Z,1610
2018-01-15T10:51:06.778Z,1615
2018-01-15T10:52:07.095Z,1655
2018-01-15T10:53:07.318Z,1680
2018-01-15T10:54:06.844Z,1625
2018-01-15T10:55:07.117Z,1625
2018-01-15T10:56:07.408Z,1295
2018-01-15T10:57:06.923Z,1740
2018-01-15T10:58:07.199Z,1925
2018-01-15T10:59:07.230Z,1725
2018-01-15T11:00:06.781Z,1815
2018-01-15T11:01:07.278Z,1875
2018-01-15T11:02:07.812Z,1600
2018-01-15T11:03:07.331Z,1385
2018-01-15T11:04:07.113Z,1330
2018-01-15T11:05:07.133Z,1195
2018-01-15T11:06:07.416Z,985
2018-01-15T11:07:07.493Z,1065
2018-01-15T11:08:07.719Z,1070
2018-01-15T11:09:07.747Z,1070
2018-01-15T11:10:07.275Z,1105
2018-01-15T11:11:07.556Z,1160
2018-01-15T11:12:07.856Z,1165
2018-01-15T11:13:07.610Z,1140
2018-01-15T11:14:08.161Z,1185
2018-01-15T11:15:07.922Z,1305
2018-01-15T11:16:08.038Z,1360
2018-01-15T11:17:07.731Z,1430
2018-01-15T11:18:07.720Z,1655
2018-01-15T11:19:07.533Z,1820
2018-01-15T11:20:07.314Z,1800
2018-01-15T11:21:08.344Z,1745
2018-01-15T11:22:08.476Z,1705
2018-01-15T11:23:07.981Z,1660
2018-01-15T11:24:07.931Z,1555
2018-01-15T11:25:07.949Z,1520
2018-01-15T11:26:07.991Z,1440
2018-01-15T11:27:08.265Z,1275
2018-01-15T11:28:08.626Z,1205
2018-01-15T11:29:08.318Z,1200
2018-01-15T11:30:08.347Z,1275
2018-01-15T11:31:08.407Z,1410
2018-01-15T11:32:08.411Z,1530
2018-01-15T11:33:08.184Z,1480
2018-01-15T11:34:08.211Z,1555
2018-01-15T11:35:08.244Z,1610
2018-01-15T11:36:08.278Z,1545
2018-01-15T11:37:08.353Z,1665
2018-01-15T11:38:08.931Z,1705
2018-01-15T11:39:08.866Z,1660
2018-01-15T11:40:08.392Z,1685
2018-01-15T11:41:08.676Z,1630
2018-01-15T11:42:08.451Z,1550
2018-01-15T11:43:08.445Z,1630
2018-01-15T11:44:08.471Z,1750
2018-01-15T11:45:08.760Z,1820
2018-01-15T11:46:09.037Z,1825
2018-01-15T11:47:08.853Z,1925
2018-01-15T11:48:08.633Z,1925
2018-01-15T11:49:08.671Z,1740
2018-01-15T11:50:08.698Z,1790
2018-01-15T11:51:08.473Z,1925
2018-01-15T11:52:09.056Z,1945
2018-01-15T11:53:08.779Z,1980
2018-01-15T11:54:08.566Z,2020
2018-01-15T11:55:09.356Z,1920
2018-01-15T11:56:08.878Z,1925
2018-01-15T11:57:09.163Z,1995
2018-01-15T11:58:09.441Z,2125
2018-01-15T11:59:09.230Z,2225
2018-01-15T12:00:09.520Z,2250
2018-01-15T12:01:09.041Z,2250
2018-01-15T12:02:09.065Z,2240
2018-01-15T12:03:09.609Z,2165
2018-01-15T12:04:09.390Z,2135
2018-01-15T12:05:09.414Z,2105
2018-01-15T12:06:09.694Z,1915
2018-01-15T12:07:09.020Z,1970
2018-01-15T12:08:09.257Z,2070
2018-01-15T12:09:09.544Z,2085
2018-01-15T12:10:09.822Z,2040
2018-01-15T12:11:09.350Z,2050
2018-01-15T12:12:09.382Z,2140
2018-01-15T12:13:09.403Z,2080
2018-01-15T12:14:09.768Z,2120
2018-01-15T12:15:09.216Z,2180
2018-01-15T12:16:09.754Z,2160
2018-01-15T12:17:09.339Z,2070
2018-01-15T12:18:09.827Z,1970
2018-01-15T12:19:09.370Z,2055
2018-01-15T12:20:10.159Z,2130
2018-01-15T12:21:09.419Z,2070
2018-01-15T12:22:09.501Z,2000
2018-01-15T12:23:09.980Z,1950
2018-01-15T12:24:09.509Z,1990
2018-01-15T12:25:09.549Z,2125
2018-01-15T12:26:09.827Z,2135
2018-01-15T12:27:09.854Z,2125
2018-01-15T12:28:10.136Z,2125
2018-01-15T12:29:09.681Z,2135
2018-01-15T12:30:10.237Z,1930
2018-01-15T12:31:09.483Z,1840
2018-01-15T12:32:10.017Z,1995
2018-01-15T12:33:10.045Z,2155
2018-01-15T12:34:10.102Z,2055
2018-01-15T12:35:10.365Z,2055
2018-01-15T12:36:10.144Z,1945
2018-01-15T12:37:10.227Z,2015
2018-01-15T12:38:09.954Z,2000
2018-01-15T12:39:10.493Z,1865
2018-01-15T12:40:10.305Z,1925
2018-01-15T12:41:10.304Z,2150
2018-01-15T12:42:10.336Z,2315
2018-01-15T12:43:09.861Z,2130
2018-01-15T12:44:10.181Z,2035
2018-01-15T12:45:10.175Z,1985
2018-01-15T12:46:10.713Z,1895
2018-01-15T12:47:10.498Z,1790
2018-01-15T12:48:10.784Z,1750
2018-01-15T12:49:10.553Z,1795
2018-01-15T12:50:11.089Z,1885
2018-01-15T12:51:10.875Z,2135
2018-01-15T12:52:10.702Z,2110
2018-01-15T12:53:10.685Z,1940
2018-01-15T12:54:10.466Z,2035
2018-01-15T12:55:11.005Z,2040
2018-01-15T12:56:10.547Z,2140
2018-01-15T12:57:11.072Z,2330
2018-01-15T12:58:10.851Z,2310
2018-01-15T12:59:11.379Z,2250
2018-01-15T13:00:10.910Z,2185
2018-01-15T13:01:10.689Z,2235
2018-01-15T13:02:10.726Z,2340
2018-01-15T13:03:11.260Z,2315
2018-01-15T13:04:10.786Z,2340
2018-01-15T13:05:11.077Z,2415
2018-01-15T13:06:11.107Z,2295
2018-01-15T13:07:11.141Z,2195
2018-01-15T13:08:11.184Z,2200
2018-01-15T13:09:11.205Z,2180
2018-01-15T13:10:11.286Z,2160
2018-01-15T13:11:11.524Z,2355
2018-01-15T13:12:11.042Z,2430
2018-01-15T13:13:11.581Z,2290
2018-01-15T13:14:10.866Z,2140
2018-01-15T13:15:11.395Z,2060
2018-01-15T13:16:11.930Z,2105
2018-01-15T13:17:11.719Z,2120
2018-01-15T13:18:11.749Z,2115
2018-01-15T13:19:11.526Z,2300
2018-01-15T13:20:11.810Z,2320
2018-01-15T13:21:11.591Z,2310
2018-01-15T13:22:11.624Z,2265
2018-01-15T13:23:11.660Z,2175
2018-01-15T13:24:11.685Z,2190
2018-01-15T13:25:11.267Z,2230
2018-01-15T13:26:11.501Z,2245
2018-01-15T13:27:11.791Z,2245
2018-01-15T13:28:12.080Z,2155
2018-01-15T13:29:11.848Z,2235
2018-01-15T13:30:11.918Z,2325
2018-01-15T13:31:12.165Z,2200
2018-01-15T13:32:11.693Z,2155
2018-01-15T13:33:11.995Z,2200
2018-01-15T13:34:12.014Z,2510
2018-01-15T13:35:11.542Z,2295
2018-01-15T13:36:12.326Z,2000
2018-01-15T13:37:11.852Z,2115
2018-01-15T13:38:12.678Z,2135
2018-01-15T13:39:12.420Z,1710
2018-01-15T13:40:12.253Z,950
2018-01-15T13:41:11.983Z,350
2018-01-15T13:42:12.280Z,330
2018-01-15T13:43:12.068Z,415
2018-01-15T13:44:12.833Z,355
2018-01-15T13:45:12.423Z,320
2018-01-15T13:46:12.139Z,325
2018-01-15T13:47:12.670Z,315
2018-01-15T13:48:12.725Z,290
2018-01-15T13:49:12.481Z,280
2018-01-15T13:50:12.626Z,295
2018-01-15T13:51:12.285Z,295
2018-01-15T13:52:12.818Z,295
2018-01-15T13:53:12.344Z,305
2018-01-15T13:54:12.113Z,290
2018-01-15T13:55:12.961Z,275
2018-01-15T13:56:12.167Z,265
2018-01-15T13:57:12.697Z,260
2018-01-15T13:58:12.730Z,250
2018-01-15T13:59:12.755Z,240
2018-01-15T14:00:14.028Z,230
2018-01-15T14:01:13.322Z,225
2018-01-15T14:02:13.083Z,220
2018-01-15T14:03:12.350Z,210
2018-01-15T14:04:12.631Z,200
2018-01-15T14:05:13.156Z,190
2018-01-15T14:06:13.436Z,180
2018-01-15T14:07:13.204Z,175
2018-01-15T14:08:12.727Z,165
2018-01-15T14:09:13.281Z,155
2018-01-15T14:10:13.538Z,150
2018-01-15T14:11:13.046Z,145
2018-01-15T14:12:13.580Z,140
2018-01-15T14:13:13.598Z,130